sensor_id;sensor_type;location;lat;lon;timestamp;P1;durP1;ratioP1;P2;durP2;ratioP2
9972;SDS011;5027;53.560;10.062;2023-04-03T00:02:01;7.87;;;2.90;;
9972;SDS011;5027;53.560;10.062;2023-04-03T00:04:28;8.03;;;2.90;;
9972;SDS011;5027;53.560;10.062;2023-04-03T00:06:54;6.00;;;3.07;;
9972;SDS011;5027;53.560;10.062;2023-04-03T00:09:21;7.33;;;3.33;;
9972;SDS011;5027;53.560;10.062;2023-04-03T00:11:48;5.97;;;2.87;;
9972;SDS011;5027;53.560;10.062;2023-04-03T00:14:14;5.30;;;2.50;;
9972;SDS011;5027;53.560;10.062;2023-04-03T00:16:41;6.43;;;3.20;;
9972;SDS011;5027;53.560;10.062;2023-04-03T00:19:08;7.43;;;3.20;;
9972;SDS011;5027;53.560;10.062;2023-04-03T00:21:37;6.00;;;2.80;;
9972;SDS011;5027;53.560;10.062;2023-04-03T00:24:04;5.60;;;3.00;;
9972;SDS011;5027;53.560;10.062;2023-04-03T00:26:31;8.73;;;3.43;;
9972;SDS011;5027;53.560;10.062;2023-04-03T00:28:58;5.77;;;2.80;;
9972;SDS011;5027;53.560;10.062;2023-04-03T00:31:25;6.70;;;3.03;;
9972;SDS011;5027;53.560;10.062;2023-04-03T00:33:52;6.20;;;3.00;;
9972;SDS011;5027;53.560;10.062;2023-04-03T00:36:19;7.33;;;2.97;;
9972;SDS011;5027;53.560;10.062;2023-04-03T00:38:46;7.57;;;3.10;;
9972;SDS011;5027;53.560;10.062;2023-04-03T00:41:13;5.53;;;2.70;;
9972;SDS011;5027;53.560;10.062;2023-04-03T00:43:39;7.47;;;3.30;;
9972;SDS011;5027;53.560;10.062;2023-04-03T00:46:07;8.47;;;2.90;;
9972;SDS011;5027;53.560;10.062;2023-04-03T00:48:38;9.67;;;3.30;;
9972;SDS011;5027;53.560;10.062;2023-04-03T00:51:09;7.27;;;3.47;;
9972;SDS011;5027;53.560;10.062;2023-04-03T00:53:40;7.23;;;3.13;;
9972;SDS011;5027;53.560;10.062;2023-04-03T00:56:11;8.23;;;3.13;;
9972;SDS011;5027;53.560;10.062;2023-04-03T00:58:43;6.37;;;3.17;;
9972;SDS011;5027;53.560;10.062;2023-04-03T01:01:16;6.13;;;2.70;;
9972;SDS011;5027;53.560;10.062;2023-04-03T01:03:46;6.17;;;3.00;;
9972;SDS011;5027;53.560;10.062;2023-04-03T01:06:14;4.60;;;2.83;;
9972;SDS011;5027;53.560;10.062;2023-04-03T01:08:45;7.37;;;3.20;;
9972;SDS011;5027;53.560;10.062;2023-04-03T01:11:14;8.10;;;3.00;;
9972;SDS011;5027;53.560;10.062;2023-04-03T01:13:42;9.37;;;3.00;;
9972;SDS011;5027;53.560;10.062;2023-04-03T01:16:09;6.83;;;3.17;;
9972;SDS011;5027;53.560;10.062;2023-04-03T01:18:37;8.67;;;3.30;;
9972;SDS011;5027;53.560;10.062;2023-04-03T01:24:36;10.73;;;3.60;;
9972;SDS011;5027;53.560;10.062;2023-04-03T01:26:44;7.27;;;3.40;;
9972;SDS011;5027;53.560;10.062;2023-04-03T01:29:11;6.23;;;3.03;;
9972;SDS011;5027;53.560;10.062;2023-04-03T01:31:44;15.50;;;3.77;;
9972;SDS011;5027;53.560;10.062;2023-04-03T01:34:13;8.13;;;3.20;;
9972;SDS011;5027;53.560;10.062;2023-04-03T01:36:39;9.13;;;3.40;;
9972;SDS011;5027;53.560;10.062;2023-04-03T01:39:07;10.33;;;3.50;;
9972;SDS011;5027;53.560;10.062;2023-04-03T01:41:33;9.97;;;3.37;;
9972;SDS011;5027;53.560;10.062;2023-04-03T01:44:09;9.20;;;3.07;;
9972;SDS011;5027;53.560;10.062;2023-04-03T01:46:36;9.77;;;3.20;;
9972;SDS011;5027;53.560;10.062;2023-04-03T01:49:04;6.30;;;2.93;;
9972;SDS011;5027;53.560;10.062;2023-04-03T01:51:31;8.13;;;3.47;;
9972;SDS011;5027;53.560;10.062;2023-04-03T01:53:57;7.23;;;3.40;;
9972;SDS011;5027;53.560;10.062;2023-04-03T01:56:24;11.37;;;3.77;;
9972;SDS011;5027;53.560;10.062;2023-04-03T01:58:51;8.03;;;3.47;;
9972;SDS011;5027;53.560;10.062;2023-04-03T02:01:18;13.50;;;3.60;;
9972;SDS011;5027;53.560;10.062;2023-04-03T02:03:44;6.27;;;2.70;;
9972;SDS011;5027;53.560;10.062;2023-04-03T02:06:11;11.77;;;3.30;;
9972;SDS011;5027;53.560;10.062;2023-04-03T02:08:38;8.03;;;3.23;;
9972;SDS011;5027;53.560;10.062;2023-04-03T02:11:05;7.60;;;3.17;;
9972;SDS011;5027;53.560;10.062;2023-04-03T02:13:32;7.70;;;2.90;;
9972;SDS011;5027;53.560;10.062;2023-04-03T02:15:59;16.13;;;3.10;;
9972;SDS011;5027;53.560;10.062;2023-04-03T02:18:31;9.37;;;3.47;;
9972;SDS011;5027;53.560;10.062;2023-04-03T02:20:58;9.40;;;3.57;;
9972;SDS011;5027;53.560;10.062;2023-04-03T02:23:25;8.70;;;3.47;;
9972;SDS011;5027;53.560;10.062;2023-04-03T02:25:52;7.60;;;3.53;;
9972;SDS011;5027;53.560;10.062;2023-04-03T02:28:18;9.00;;;3.57;;
9972;SDS011;5027;53.560;10.062;2023-04-03T02:30:45;7.80;;;3.80;;
9972;SDS011;5027;53.560;10.062;2023-04-03T02:33:12;11.50;;;3.43;;
9972;SDS011;5027;53.560;10.062;2023-04-03T02:35:39;9.47;;;3.13;;
9972;SDS011;5027;53.560;10.062;2023-04-03T02:38:06;8.73;;;3.67;;
9972;SDS011;5027;53.560;10.062;2023-04-03T02:40:33;7.37;;;3.30;;
9972;SDS011;5027;53.560;10.062;2023-04-03T02:43:00;7.20;;;3.53;;
9972;SDS011;5027;53.560;10.062;2023-04-03T02:45:27;4.97;;;2.87;;
9972;SDS011;5027;53.560;10.062;2023-04-03T02:47:54;7.87;;;3.70;;
9972;SDS011;5027;53.560;10.062;2023-04-03T02:50:21;6.60;;;3.23;;
9972;SDS011;5027;53.560;10.062;2023-04-03T02:52:47;9.33;;;3.10;;
9972;SDS011;5027;53.560;10.062;2023-04-03T02:55:14;7.03;;;3.30;;
9972;SDS011;5027;53.560;10.062;2023-04-03T02:57:43;7.70;;;3.67;;
9972;SDS011;5027;53.560;10.062;2023-04-03T03:00:11;8.60;;;3.33;;
9972;SDS011;5027;53.560;10.062;2023-04-03T03:02:39;6.27;;;3.43;;
9972;SDS011;5027;53.560;10.062;2023-04-03T03:05:06;9.30;;;3.60;;
9972;SDS011;5027;53.560;10.062;2023-04-03T03:07:34;8.73;;;3.07;;
9972;SDS011;5027;53.560;10.062;2023-04-03T03:10:01;6.20;;;3.10;;
9972;SDS011;5027;53.560;10.062;2023-04-03T03:12:27;6.63;;;3.13;;
9972;SDS011;5027;53.560;10.062;2023-04-03T03:14:54;8.97;;;3.43;;
9972;SDS011;5027;53.560;10.062;2023-04-03T03:17:21;7.33;;;2.90;;
9972;SDS011;5027;53.560;10.062;2023-04-03T03:19:48;5.77;;;3.20;;
9972;SDS011;5027;53.560;10.062;2023-04-03T03:22:15;6.80;;;3.00;;
9972;SDS011;5027;53.560;10.062;2023-04-03T03:24:42;7.73;;;3.10;;
9972;SDS011;5027;53.560;10.062;2023-04-03T03:27:09;6.97;;;3.50;;
9972;SDS011;5027;53.560;10.062;2023-04-03T03:29:36;7.87;;;2.87;;
9972;SDS011;5027;53.560;10.062;2023-04-03T03:32:04;8.10;;;3.23;;
9972;SDS011;5027;53.560;10.062;2023-04-03T03:34:30;7.73;;;3.73;;
9972;SDS011;5027;53.560;10.062;2023-04-03T03:36:58;6.20;;;3.00;;
9972;SDS011;5027;53.560;10.062;2023-04-03T03:39:25;6.43;;;3.33;;
9972;SDS011;5027;53.560;10.062;2023-04-03T03:41:52;7.60;;;3.33;;
9972;SDS011;5027;53.560;10.062;2023-04-03T03:44:19;6.73;;;3.27;;
9972;SDS011;5027;53.560;10.062;2023-04-03T03:46:46;7.67;;;3.40;;
9972;SDS011;5027;53.560;10.062;2023-04-03T03:49:13;10.60;;;3.70;;
9972;SDS011;5027;53.560;10.062;2023-04-03T03:51:40;7.53;;;3.17;;
9972;SDS011;5027;53.560;10.062;2023-04-03T03:54:07;6.27;;;3.50;;
9972;SDS011;5027;53.560;10.062;2023-04-03T03:56:34;8.40;;;2.97;;
9972;SDS011;5027;53.560;10.062;2023-04-03T03:59:01;6.10;;;3.13;;
9972;SDS011;5027;53.560;10.062;2023-04-03T04:01:30;7.80;;;3.50;;
9972;SDS011;5027;53.560;10.062;2023-04-03T04:03:57;6.53;;;3.03;;
9972;SDS011;5027;53.560;10.062;2023-04-03T04:06:28;6.87;;;3.53;;
9972;SDS011;5027;53.560;10.062;2023-04-03T04:08:58;8.07;;;3.23;;
9972;SDS011;5027;53.560;10.062;2023-04-03T04:11:25;6.47;;;3.47;;
9972;SDS011;5027;53.560;10.062;2023-04-03T04:13:54;5.47;;;3.27;;
9972;SDS011;5027;53.560;10.062;2023-04-03T04:16:24;7.70;;;2.87;;
9972;SDS011;5027;53.560;10.062;2023-04-03T04:18:52;6.63;;;3.07;;
9972;SDS011;5027;53.560;10.062;2023-04-03T04:21:19;8.17;;;3.07;;
9972;SDS011;5027;53.560;10.062;2023-04-03T04:23:49;9.30;;;3.33;;
9972;SDS011;5027;53.560;10.062;2023-04-03T04:26:16;6.50;;;3.23;;
9972;SDS011;5027;53.560;10.062;2023-04-03T04:28:43;6.87;;;4.10;;
9972;SDS011;5027;53.560;10.062;2023-04-03T04:31:09;6.43;;;2.70;;
9972;SDS011;5027;53.560;10.062;2023-04-03T04:33:36;7.07;;;3.50;;
9972;SDS011;5027;53.560;10.062;2023-04-03T04:36:04;7.37;;;3.47;;
9972;SDS011;5027;53.560;10.062;2023-04-03T04:38:32;8.57;;;2.97;;
9972;SDS011;5027;53.560;10.062;2023-04-03T04:40:59;7.63;;;3.07;;
9972;SDS011;5027;53.560;10.062;2023-04-03T04:43:26;8.27;;;3.30;;
9972;SDS011;5027;53.560;10.062;2023-04-03T04:46:03;11.10;;;4.13;;
9972;SDS011;5027;53.560;10.062;2023-04-03T04:48:36;9.83;;;3.43;;
9972;SDS011;5027;53.560;10.062;2023-04-03T04:51:04;6.07;;;3.43;;
9972;SDS011;5027;53.560;10.062;2023-04-03T04:53:31;9.83;;;3.67;;
9972;SDS011;5027;53.560;10.062;2023-04-03T04:55:59;10.10;;;3.33;;
9972;SDS011;5027;53.560;10.062;2023-04-03T04:58:26;5.47;;;3.17;;
9972;SDS011;5027;53.560;10.062;2023-04-03T05:01:00;5.57;;;3.30;;
9972;SDS011;5027;53.560;10.062;2023-04-03T05:03:29;8.73;;;3.47;;
9972;SDS011;5027;53.560;10.062;2023-04-03T05:05:56;7.57;;;3.33;;
9972;SDS011;5027;53.560;10.062;2023-04-03T05:08:23;7.37;;;3.87;;
9972;SDS011;5027;53.560;10.062;2023-04-03T05:10:50;12.77;;;3.20;;
9972;SDS011;5027;53.560;10.062;2023-04-03T05:13:21;7.20;;;2.87;;
9972;SDS011;5027;53.560;10.062;2023-04-03T05:15:48;5.97;;;3.03;;
9972;SDS011;5027;53.560;10.062;2023-04-03T05:18:15;8.37;;;2.90;;
9972;SDS011;5027;53.560;10.062;2023-04-03T05:20:42;7.23;;;3.37;;
9972;SDS011;5027;53.560;10.062;2023-04-03T05:23:10;7.17;;;3.17;;
9972;SDS011;5027;53.560;10.062;2023-04-03T05:25:38;9.77;;;4.13;;
9972;SDS011;5027;53.560;10.062;2023-04-03T05:28:07;9.40;;;3.60;;
9972;SDS011;5027;53.560;10.062;2023-04-03T05:30:34;7.47;;;3.17;;
9972;SDS011;5027;53.560;10.062;2023-04-03T05:33:02;6.13;;;3.30;;
9972;SDS011;5027;53.560;10.062;2023-04-03T05:35:37;17.90;;;4.33;;
9972;SDS011;5027;53.560;10.062;2023-04-03T05:38:10;10.90;;;3.43;;
9972;SDS011;5027;53.560;10.062;2023-04-03T05:40:37;9.07;;;3.80;;
9972;SDS011;5027;53.560;10.062;2023-04-03T05:43:05;8.40;;;3.17;;
9972;SDS011;5027;53.560;10.062;2023-04-03T05:45:34;14.53;;;3.77;;
9972;SDS011;5027;53.560;10.062;2023-04-03T05:48:01;18.50;;;4.97;;
9972;SDS011;5027;53.560;10.062;2023-04-03T05:50:29;8.43;;;3.63;;
9972;SDS011;5027;53.560;10.062;2023-04-03T05:52:56;7.07;;;3.60;;
9972;SDS011;5027;53.560;10.062;2023-04-03T05:55:27;8.07;;;3.47;;
9972;SDS011;5027;53.560;10.062;2023-04-03T05:57:53;8.77;;;3.40;;
9972;SDS011;5027;53.560;10.062;2023-04-03T06:00:20;8.47;;;2.80;;
9972;SDS011;5027;53.560;10.062;2023-04-03T06:02:56;13.27;;;3.30;;
9972;SDS011;5027;53.560;10.062;2023-04-03T06:05:24;18.60;;;4.07;;
9972;SDS011;5027;53.560;10.062;2023-04-03T06:07:50;60.20;;;9.47;;
9972;SDS011;5027;53.560;10.062;2023-04-03T06:10:17;38.47;;;7.50;;
9972;SDS011;5027;53.560;10.062;2023-04-03T06:12:44;38.33;;;6.83;;
9972;SDS011;5027;53.560;10.062;2023-04-03T06:15:11;20.20;;;4.50;;
9972;SDS011;5027;53.560;10.062;2023-04-03T06:17:40;7.27;;;3.37;;
9972;SDS011;5027;53.560;10.062;2023-04-03T06:20:07;26.33;;;5.53;;
9972;SDS011;5027;53.560;10.062;2023-04-03T06:22:35;33.87;;;6.30;;
9972;SDS011;5027;53.560;10.062;2023-04-03T06:25:02;9.80;;;3.17;;
9972;SDS011;5027;53.560;10.062;2023-04-03T06:27:29;17.60;;;4.87;;
9972;SDS011;5027;53.560;10.062;2023-04-03T06:29:56;16.77;;;4.30;;
9972;SDS011;5027;53.560;10.062;2023-04-03T06:32:23;21.13;;;4.40;;
9972;SDS011;5027;53.560;10.062;2023-04-03T06:34:49;35.93;;;6.07;;
9972;SDS011;5027;53.560;10.062;2023-04-03T06:37:17;30.33;;;5.27;;
9972;SDS011;5027;53.560;10.062;2023-04-03T06:39:46;14.87;;;4.37;;
9972;SDS011;5027;53.560;10.062;2023-04-03T06:42:13;19.27;;;3.63;;
9972;SDS011;5027;53.560;10.062;2023-04-03T06:44:51;7.10;;;3.17;;
9972;SDS011;5027;53.560;10.062;2023-04-03T06:47:18;11.87;;;4.73;;
9972;SDS011;5027;53.560;10.062;2023-04-03T06:49:44;7.37;;;3.50;;
9972;SDS011;5027;53.560;10.062;2023-04-03T06:52:11;7.47;;;2.43;;
9972;SDS011;5027;53.560;10.062;2023-04-03T06:54:39;14.77;;;4.30;;
9972;SDS011;5027;53.560;10.062;2023-04-03T06:57:07;26.17;;;12.17;;
9972;SDS011;5027;53.560;10.062;2023-04-03T06:59:34;31.37;;;5.80;;
9972;SDS011;5027;53.560;10.062;2023-04-03T07:02:02;16.70;;;3.17;;
9972;SDS011;5027;53.560;10.062;2023-04-03T07:04:29;13.50;;;3.30;;
9972;SDS011;5027;53.560;10.062;2023-04-03T07:06:56;22.73;;;3.93;;
9972;SDS011;5027;53.560;10.062;2023-04-03T07:09:22;13.90;;;3.10;;
9972;SDS011;5027;53.560;10.062;2023-04-03T07:11:49;23.63;;;5.00;;
9972;SDS011;5027;53.560;10.062;2023-04-03T07:14:16;13.60;;;3.40;;
9972;SDS011;5027;53.560;10.062;2023-04-03T07:16:42;12.00;;;3.17;;
9972;SDS011;5027;53.560;10.062;2023-04-03T07:19:09;6.57;;;2.60;;
9972;SDS011;5027;53.560;10.062;2023-04-03T07:21:36;8.07;;;2.80;;
9972;SDS011;5027;53.560;10.062;2023-04-03T07:24:03;4.90;;;1.90;;
9972;SDS011;5027;53.560;10.062;2023-04-03T07:26:29;5.37;;;2.47;;
9972;SDS011;5027;53.560;10.062;2023-04-03T07:28:57;5.47;;;2.23;;
9972;SDS011;5027;53.560;10.062;2023-04-03T07:31:24;6.13;;;2.73;;
9972;SDS011;5027;53.560;10.062;2023-04-03T07:33:51;5.40;;;2.40;;
9972;SDS011;5027;53.560;10.062;2023-04-03T07:36:19;4.90;;;2.27;;
9972;SDS011;5027;53.560;10.062;2023-04-03T07:38:47;4.60;;;2.50;;
9972;SDS011;5027;53.560;10.062;2023-04-03T07:41:15;7.53;;;2.80;;
9972;SDS011;5027;53.560;10.062;2023-04-03T07:43:44;6.80;;;2.73;;
9972;SDS011;5027;53.560;10.062;2023-04-03T07:46:11;5.67;;;2.20;;
9972;SDS011;5027;53.560;10.062;2023-04-03T07:48:38;4.67;;;2.30;;
9972;SDS011;5027;53.560;10.062;2023-04-03T07:51:05;5.10;;;2.20;;
9972;SDS011;5027;53.560;10.062;2023-04-03T07:53:32;6.03;;;2.00;;
9972;SDS011;5027;53.560;10.062;2023-04-03T07:55:59;7.60;;;2.30;;
9972;SDS011;5027;53.560;10.062;2023-04-03T07:58:27;5.30;;;2.03;;
9972;SDS011;5027;53.560;10.062;2023-04-03T08:00:54;5.13;;;2.33;;
9972;SDS011;5027;53.560;10.062;2023-04-03T08:03:21;3.33;;;1.70;;
9972;SDS011;5027;53.560;10.062;2023-04-03T08:05:49;2.67;;;1.70;;
9972;SDS011;5027;53.560;10.062;2023-04-03T08:08:17;8.50;;;1.97;;
9972;SDS011;5027;53.560;10.062;2023-04-03T08:10:49;7.77;;;2.53;;
9972;SDS011;5027;53.560;10.062;2023-04-03T08:13:17;4.40;;;1.80;;
9972;SDS011;5027;53.560;10.062;2023-04-03T08:15:44;3.13;;;1.83;;
9972;SDS011;5027;53.560;10.062;2023-04-03T08:18:11;3.97;;;1.80;;
9972;SDS011;5027;53.560;10.062;2023-04-03T08:20:38;5.67;;;2.00;;
9972;SDS011;5027;53.560;10.062;2023-04-03T08:23:07;5.07;;;2.17;;
9972;SDS011;5027;53.560;10.062;2023-04-03T08:25:37;4.77;;;2.27;;
9972;SDS011;5027;53.560;10.062;2023-04-03T08:28:05;5.53;;;2.07;;
9972;SDS011;5027;53.560;10.062;2023-04-03T08:30:32;3.93;;;1.80;;
9972;SDS011;5027;53.560;10.062;2023-04-03T08:33:00;3.70;;;2.00;;
9972;SDS011;5027;53.560;10.062;2023-04-03T08:35:28;4.27;;;1.90;;
9972;SDS011;5027;53.560;10.062;2023-04-03T08:37:55;6.30;;;2.20;;
9972;SDS011;5027;53.560;10.062;2023-04-03T08:40:22;6.53;;;2.50;;
9972;SDS011;5027;53.560;10.062;2023-04-03T08:45:27;2.67;;;1.50;;
9972;SDS011;5027;53.560;10.062;2023-04-03T08:48:20;5.50;;;1.83;;
9972;SDS011;5027;53.560;10.062;2023-04-03T08:50:54;2.97;;;1.70;;
9972;SDS011;5027;53.560;10.062;2023-04-03T08:53:28;8.03;;;1.83;;
9972;SDS011;5027;53.560;10.062;2023-04-03T08:55:58;3.43;;;1.87;;
9972;SDS011;5027;53.560;10.062;2023-04-03T08:58:33;5.00;;;1.80;;
9972;SDS011;5027;53.560;10.062;2023-04-03T09:03:53;2.60;;;1.33;;
9972;SDS011;5027;53.560;10.062;2023-04-03T09:06:25;4.83;;;1.93;;
9972;SDS011;5027;53.560;10.062;2023-04-03T09:17:59;3.53;;;1.60;;
9972;SDS011;5027;53.560;10.062;2023-04-03T09:22:58;3.43;;;1.73;;
9972;SDS011;5027;53.560;10.062;2023-04-03T09:25:31;3.10;;;1.57;;
9972;SDS011;5027;53.560;10.062;2023-04-03T09:28:03;4.97;;;2.27;;
9972;SDS011;5027;53.560;10.062;2023-04-03T09:30:35;2.93;;;1.50;;
9972;SDS011;5027;53.560;10.062;2023-04-03T09:33:04;5.47;;;1.80;;
9972;SDS011;5027;53.560;10.062;2023-04-03T09:35:34;3.03;;;1.70;;
9972;SDS011;5027;53.560;10.062;2023-04-03T09:38:15;3.50;;;1.63;;
9972;SDS011;5027;53.560;10.062;2023-04-03T09:40:46;3.73;;;1.67;;
9972;SDS011;5027;53.560;10.062;2023-04-03T09:43:29;3.07;;;1.70;;
9972;SDS011;5027;53.560;10.062;2023-04-03T09:46:24;2.37;;;1.40;;
9972;SDS011;5027;53.560;10.062;2023-04-03T09:48:55;4.13;;;1.73;;
9972;SDS011;5027;53.560;10.062;2023-04-03T09:51:35;4.70;;;1.83;;
9972;SDS011;5027;53.560;10.062;2023-04-03T09:54:24;4.63;;;1.90;;
9972;SDS011;5027;53.560;10.062;2023-04-03T09:56:57;2.47;;;1.60;;
9972;SDS011;5027;53.560;10.062;2023-04-03T09:59:57;2.03;;;1.30;;
9972;SDS011;5027;53.560;10.062;2023-04-03T10:02:32;3.03;;;1.90;;
9972;SDS011;5027;53.560;10.062;2023-04-03T10:05:03;2.40;;;1.43;;
9972;SDS011;5027;53.560;10.062;2023-04-03T10:07:50;2.63;;;1.73;;
9972;SDS011;5027;53.560;10.062;2023-04-03T10:10:28;1.93;;;1.40;;
9972;SDS011;5027;53.560;10.062;2023-04-03T10:13:06;3.80;;;1.23;;
9972;SDS011;5027;53.560;10.062;2023-04-03T10:15:45;2.97;;;1.57;;
9972;SDS011;5027;53.560;10.062;2023-04-03T10:18:40;4.83;;;1.60;;
9972;SDS011;5027;53.560;10.062;2023-04-03T10:26:45;4.63;;;1.60;;
9972;SDS011;5027;53.560;10.062;2023-04-03T10:35:19;2.00;;;1.33;;
9972;SDS011;5027;53.560;10.062;2023-04-03T10:40:52;1.40;;;1.30;;
9972;SDS011;5027;53.560;10.062;2023-04-03T10:43:36;3.87;;;1.57;;
9972;SDS011;5027;53.560;10.062;2023-04-03T10:48:46;4.30;;;2.03;;
9972;SDS011;5027;53.560;10.062;2023-04-03T10:51:22;2.70;;;1.53;;
9972;SDS011;5027;53.560;10.062;2023-04-03T10:56:44;5.27;;;1.60;;
9972;SDS011;5027;53.560;10.062;2023-04-03T10:59:35;4.57;;;1.83;;
9972;SDS011;5027;53.560;10.062;2023-04-03T11:02:27;4.20;;;1.90;;
9972;SDS011;5027;53.560;10.062;2023-04-03T11:05:21;3.60;;;1.80;;
9972;SDS011;5027;53.560;10.062;2023-04-03T11:08:27;4.83;;;2.20;;
9972;SDS011;5027;53.560;10.062;2023-04-03T11:11:09;1.83;;;1.60;;
9972;SDS011;5027;53.560;10.062;2023-04-03T11:16:24;3.53;;;2.17;;
9972;SDS011;5027;53.560;10.062;2023-04-03T11:18:59;4.20;;;1.90;;
9972;SDS011;5027;53.560;10.062;2023-04-03T11:21:42;1.27;;;1.17;;
9972;SDS011;5027;53.560;10.062;2023-04-03T11:24:16;5.03;;;2.50;;
9972;SDS011;5027;53.560;10.062;2023-04-03T11:26:49;3.20;;;1.67;;
9972;SDS011;5027;53.560;10.062;2023-04-03T11:29:19;6.80;;;2.10;;
9972;SDS011;5027;53.560;10.062;2023-04-03T11:32:03;9.43;;;2.20;;
9972;SDS011;5027;53.560;10.062;2023-04-03T11:34:47;3.90;;;1.90;;
9972;SDS011;5027;53.560;10.062;2023-04-03T11:40:06;3.30;;;1.67;;
9972;SDS011;5027;53.560;10.062;2023-04-03T11:42:47;4.50;;;1.77;;
9972;SDS011;5027;53.560;10.062;2023-04-03T11:47:57;6.00;;;2.30;;
9972;SDS011;5027;53.560;10.062;2023-04-03T11:50:39;3.23;;;1.90;;
9972;SDS011;5027;53.560;10.062;2023-04-03T11:55:57;1.20;;;1.10;;
9972;SDS011;5027;53.560;10.062;2023-04-03T11:58:30;12.27;;;3.03;;
9972;SDS011;5027;53.560;10.062;2023-04-03T12:01:11;7.80;;;2.30;;
9972;SDS011;5027;53.560;10.062;2023-04-03T12:04:05;6.03;;;2.37;;
9972;SDS011;5027;53.560;10.062;2023-04-03T12:09:02;4.90;;;2.57;;
9972;SDS011;5027;53.560;10.062;2023-04-03T12:11:41;4.73;;;2.40;;
9972;SDS011;5027;53.560;10.062;2023-04-03T12:14:14;5.50;;;2.03;;
9972;SDS011;5027;53.560;10.062;2023-04-03T12:16:42;2.67;;;1.80;;
9972;SDS011;5027;53.560;10.062;2023-04-03T12:26:47;3.07;;;1.57;;
9972;SDS011;5027;53.560;10.062;2023-04-03T12:37:46;4.50;;;1.97;;
9972;SDS011;5027;53.560;10.062;2023-04-03T12:40:56;2.10;;;1.20;;
9972;SDS011;5027;53.560;10.062;2023-04-03T12:43:31;5.37;;;2.13;;
9972;SDS011;5027;53.560;10.062;2023-04-03T12:46:28;3.53;;;1.90;;
9972;SDS011;5027;53.560;10.062;2023-04-03T12:49:10;2.93;;;2.03;;
9972;SDS011;5027;53.560;10.062;2023-04-03T12:51:57;1.73;;;1.20;;
9972;SDS011;5027;53.560;10.062;2023-04-03T12:54:32;7.50;;;2.03;;
9972;SDS011;5027;53.560;10.062;2023-04-03T12:57:09;3.83;;;1.87;;
9972;SDS011;5027;53.560;10.062;2023-04-03T12:59:36;2.67;;;1.70;;
9972;SDS011;5027;53.560;10.062;2023-04-03T13:02:09;4.97;;;1.90;;
9972;SDS011;5027;53.560;10.062;2023-04-03T13:04:50;6.73;;;2.30;;
9972;SDS011;5027;53.560;10.062;2023-04-03T13:07:20;7.00;;;2.10;;
9972;SDS011;5027;53.560;10.062;2023-04-03T13:10:01;3.90;;;1.93;;
9972;SDS011;5027;53.560;10.062;2023-04-03T13:12:33;5.50;;;1.77;;
9972;SDS011;5027;53.560;10.062;2023-04-03T13:15:21;3.23;;;1.63;;
9972;SDS011;5027;53.560;10.062;2023-04-03T13:17:51;5.23;;;1.67;;
9972;SDS011;5027;53.560;10.062;2023-04-03T13:25:20;1.20;;;1.10;;
9972;SDS011;5027;53.560;10.062;2023-04-03T13:27:49;1.93;;;1.73;;
9972;SDS011;5027;53.560;10.062;2023-04-03T13:30:24;3.03;;;1.70;;
9972;SDS011;5027;53.560;10.062;2023-04-03T13:32:51;3.87;;;1.73;;
9972;SDS011;5027;53.560;10.062;2023-04-03T13:37:56;4.73;;;2.40;;
9972;SDS011;5027;53.560;10.062;2023-04-03T13:40:24;3.87;;;2.53;;
9972;SDS011;5027;53.560;10.062;2023-04-03T13:42:58;3.80;;;1.93;;
9972;SDS011;5027;53.560;10.062;2023-04-03T13:48:25;3.50;;;1.70;;
9972;SDS011;5027;53.560;10.062;2023-04-03T13:53:22;4.83;;;2.20;;
9972;SDS011;5027;53.560;10.062;2023-04-03T13:55:54;5.10;;;2.03;;
9972;SDS011;5027;53.560;10.062;2023-04-03T13:58:31;3.37;;;1.90;;
9972;SDS011;5027;53.560;10.062;2023-04-03T14:06:45;3.17;;;1.60;;
9972;SDS011;5027;53.560;10.062;2023-04-03T14:09:12;3.13;;;2.83;;
9972;SDS011;5027;53.560;10.062;2023-04-03T14:11:40;6.70;;;1.97;;
9972;SDS011;5027;53.560;10.062;2023-04-03T14:16:44;3.23;;;1.63;;
9972;SDS011;5027;53.560;10.062;2023-04-03T14:19:18;2.63;;;2.37;;
9972;SDS011;5027;53.560;10.062;2023-04-03T14:21:53;5.60;;;1.97;;
9972;SDS011;5027;53.560;10.062;2023-04-03T14:24:21;3.87;;;1.90;;
9972;SDS011;5027;53.560;10.062;2023-04-03T14:26:49;3.57;;;1.90;;
9972;SDS011;5027;53.560;10.062;2023-04-03T14:29:18;3.03;;;1.60;;
9972;SDS011;5027;53.560;10.062;2023-04-03T14:31:47;14.07;;;2.60;;
9972;SDS011;5027;53.560;10.062;2023-04-03T14:34:17;6.40;;;2.57;;
9972;SDS011;5027;53.560;10.062;2023-04-03T14:36:44;5.03;;;1.90;;
9972;SDS011;5027;53.560;10.062;2023-04-03T14:39:15;2.73;;;1.60;;
9972;SDS011;5027;53.560;10.062;2023-04-03T14:41:44;3.93;;;1.63;;
9972;SDS011;5027;53.560;10.062;2023-04-03T14:44:11;2.27;;;2.07;;
9972;SDS011;5027;53.560;10.062;2023-04-03T14:46:39;3.83;;;3.10;;
9972;SDS011;5027;53.560;10.062;2023-04-03T14:49:23;6.80;;;2.77;;
9972;SDS011;5027;53.560;10.062;2023-04-03T14:51:54;3.43;;;1.67;;
9972;SDS011;5027;53.560;10.062;2023-04-03T14:54:22;2.57;;;1.90;;
9972;SDS011;5027;53.560;10.062;2023-04-03T14:56:55;5.43;;;1.97;;
9972;SDS011;5027;53.560;10.062;2023-04-03T14:59:23;3.23;;;1.70;;
9972;SDS011;5027;53.560;10.062;2023-04-03T15:01:50;4.00;;;1.90;;
9972;SDS011;5027;53.560;10.062;2023-04-03T15:04:18;3.90;;;1.80;;
9972;SDS011;5027;53.560;10.062;2023-04-03T15:06:47;3.50;;;2.50;;
9972;SDS011;5027;53.560;10.062;2023-04-03T15:09:18;3.83;;;2.23;;
9972;SDS011;5027;53.560;10.062;2023-04-03T15:11:53;3.33;;;1.70;;
9972;SDS011;5027;53.560;10.062;2023-04-03T15:14:21;3.10;;;2.80;;
9972;SDS011;5027;53.560;10.062;2023-04-03T15:17:06;4.67;;;2.70;;
9972;SDS011;5027;53.560;10.062;2023-04-03T15:19:39;2.77;;;2.40;;
9972;SDS011;5027;53.560;10.062;2023-04-03T15:22:06;2.87;;;2.20;;
9972;SDS011;5027;53.560;10.062;2023-04-03T15:24:34;3.37;;;1.87;;
9972;SDS011;5027;53.560;10.062;2023-04-03T15:27:01;5.43;;;1.77;;
9972;SDS011;5027;53.560;10.062;2023-04-03T15:29:28;5.47;;;2.10;;
9972;SDS011;5027;53.560;10.062;2023-04-03T15:31:54;3.20;;;1.80;;
9972;SDS011;5027;53.560;10.062;2023-04-03T15:34:21;4.10;;;2.13;;
9972;SDS011;5027;53.560;10.062;2023-04-03T15:36:49;2.47;;;2.00;;
9972;SDS011;5027;53.560;10.062;2023-04-03T15:39:18;3.07;;;2.30;;
9972;SDS011;5027;53.560;10.062;2023-04-03T15:41:46;3.47;;;1.80;;
9972;SDS011;5027;53.560;10.062;2023-04-03T15:44:13;2.73;;;1.90;;
9972;SDS011;5027;53.560;10.062;2023-04-03T15:46:44;2.77;;;1.90;;
9972;SDS011;5027;53.560;10.062;2023-04-03T15:49:12;4.47;;;1.80;;
9972;SDS011;5027;53.560;10.062;2023-04-03T15:51:39;2.73;;;1.93;;
9972;SDS011;5027;53.560;10.062;2023-04-03T15:54:06;4.30;;;1.87;;
9972;SDS011;5027;53.560;10.062;2023-04-03T15:56:33;4.67;;;2.07;;
9972;SDS011;5027;53.560;10.062;2023-04-03T15:58:59;2.67;;;1.83;;
9972;SDS011;5027;53.560;10.062;2023-04-03T16:01:26;3.30;;;1.70;;
9972;SDS011;5027;53.560;10.062;2023-04-03T16:03:53;3.40;;;1.90;;
9972;SDS011;5027;53.560;10.062;2023-04-03T16:06:20;4.13;;;2.10;;
9972;SDS011;5027;53.560;10.062;2023-04-03T16:08:47;4.87;;;2.53;;
9972;SDS011;5027;53.560;10.062;2023-04-03T16:11:14;3.03;;;2.10;;
9972;SDS011;5027;53.560;10.062;2023-04-03T16:13:41;3.80;;;2.00;;
9972;SDS011;5027;53.560;10.062;2023-04-03T16:16:08;4.93;;;1.90;;
9972;SDS011;5027;53.560;10.062;2023-04-03T16:18:35;3.97;;;2.13;;
9972;SDS011;5027;53.560;10.062;2023-04-03T16:21:02;6.80;;;2.33;;
9972;SDS011;5027;53.560;10.062;2023-04-03T16:23:29;4.40;;;2.10;;
9972;SDS011;5027;53.560;10.062;2023-04-03T16:25:56;4.73;;;2.10;;
9972;SDS011;5027;53.560;10.062;2023-04-03T16:28:23;4.50;;;2.60;;
9972;SDS011;5027;53.560;10.062;2023-04-03T16:30:50;6.37;;;3.30;;
9972;SDS011;5027;53.560;10.062;2023-04-03T16:33:17;3.57;;;2.00;;
9972;SDS011;5027;53.560;10.062;2023-04-03T16:35:48;3.40;;;1.80;;
9972;SDS011;5027;53.560;10.062;2023-04-03T16:38:15;5.63;;;2.13;;
9972;SDS011;5027;53.560;10.062;2023-04-03T16:40:42;5.53;;;2.23;;
9972;SDS011;5027;53.560;10.062;2023-04-03T16:43:09;4.67;;;2.20;;
9972;SDS011;5027;53.560;10.062;2023-04-03T16:45:36;4.57;;;1.87;;
9972;SDS011;5027;53.560;10.062;2023-04-03T16:48:04;4.33;;;2.03;;
9972;SDS011;5027;53.560;10.062;2023-04-03T16:50:32;3.97;;;2.10;;